sensor_id;sensor_type;location;lat;lon;timestamp;temperature;humidity
51739;DHT22;37815;52.692;6.226;2023-05-10T00:02:09;16.50;99.90
51739;DHT22;37815;52.692;6.226;2023-05-10T00:07:10;16.60;99.90
51739;DHT22;37815;52.692;6.226;2023-05-10T00:12:10;16.60;99.90
51739;DHT22;37815;52.692;6.226;2023-05-10T00:17:11;16.60;99.90
51739;DHT22;37815;52.692;6.226;2023-05-10T00:22:12;16.60;99.90
51739;DHT22;37815;52.692;6.226;2023-05-10T00:27:12;16.50;99.90
51739;DHT22;37815;52.692;6.226;2023-05-10T00:32:13;16.50;99.90
51739;DHT22;37815;52.692;6.226;2023-05-10T00:37:14;16.50;99.90
51739;DHT22;37815;52.692;6.226;2023-05-10T00:42:14;16.50;99.90
51739;DHT22;37815;52.692;6.226;2023-05-10T00:47:16;16.50;99.90
51739;DHT22;37815;52.692;6.226;2023-05-10T00:52:17;16.50;99.90
51739;DHT22;37815;52.692;6.226;2023-05-10T00:57:17;16.50;99.90
51739;DHT22;37815;52.692;6.226;2023-05-10T01:02:18;16.50;99.90
51739;DHT22;37815;52.692;6.226;2023-05-10T01:07:18;16.40;99.90
51739;DHT22;37815;52.692;6.226;2023-05-10T01:12:19;16.40;99.90
51739;DHT22;37815;52.692;6.226;2023-05-10T01:17:21;16.40;99.90
51739;DHT22;37815;52.692;6.226;2023-05-10T01:39:24;16.40;99.90
51739;DHT22;37815;52.692;6.226;2023-05-10T01:44:36;16.30;99.90
51739;DHT22;37815;52.692;6.226;2023-05-10T01:49:50;16.30;99.90
51739;DHT22;37815;52.692;6.226;2023-05-10T01:55:01;16.30;99.90
51739;DHT22;37815;52.692;6.226;2023-05-10T02:00:03;16.30;99.90
51739;DHT22;37815;52.692;6.226;2023-05-10T02:05:06;16.30;99.90
51739;DHT22;37815;52.692;6.226;2023-05-10T02:10:09;16.30;99.90
51739;DHT22;37815;52.692;6.226;2023-05-10T02:15:11;16.30;99.90
51739;DHT22;37815;52.692;6.226;2023-05-10T02:20:14;16.30;99.90
51739;DHT22;37815;52.692;6.226;2023-05-10T02:25:18;16.30;99.90
51739;DHT22;37815;52.692;6.226;2023-05-10T02:30:19;16.30;99.90
51739;DHT22;37815;52.692;6.226;2023-05-10T02:35:21;16.20;99.90
51739;DHT22;37815;52.692;6.226;2023-05-10T02:40:22;16.20;99.90
51739;DHT22;37815;52.692;6.226;2023-05-10T02:45:27;16.20;99.90
51739;DHT22;37815;52.692;6.226;2023-05-10T02:50:30;16.20;99.90
51739;DHT22;37815;52.692;6.226;2023-05-10T02:55:36;16.20;99.90
51739;DHT22;37815;52.692;6.226;2023-05-10T03:00:38;16.20;99.90
51739;DHT22;37815;52.692;6.226;2023-05-10T03:05:38;16.20;99.90
51739;DHT22;37815;52.692;6.226;2023-05-10T03:10:48;16.10;99.90
51739;DHT22;37815;52.692;6.226;2023-05-10T03:16:04;16.20;99.90
51739;DHT22;37815;52.692;6.226;2023-05-10T03:21:10;16.10;99.90
51739;DHT22;37815;52.692;6.226;2023-05-10T03:26:23;16.10;99.90
51739;DHT22;37815;52.692;6.226;2023-05-10T03:31:25;16.10;99.90
51739;DHT22;37815;52.692;6.226;2023-05-10T03:36:26;16.20;99.90
51739;DHT22;37815;52.692;6.226;2023-05-10T03:41:27;16.10;99.90
51739;DHT22;37815;52.692;6.226;2023-05-10T03:46:27;16.10;99.90
51739;DHT22;37815;52.692;6.226;2023-05-10T03:51:28;16.10;99.90
51739;DHT22;37815;52.692;6.226;2023-05-10T03:56:28;16.10;99.90
51739;DHT22;37815;52.692;6.226;2023-05-10T04:01:29;16.10;99.90
51739;DHT22;37815;52.692;6.226;2023-05-10T04:06:30;16.00;99.90
51739;DHT22;37815;52.692;6.226;2023-05-10T04:11:31;16.00;99.90
51739;DHT22;37815;52.692;6.226;2023-05-10T04:16:31;16.00;99.90
51739;DHT22;37815;52.692;6.226;2023-05-10T04:21:32;16.00;99.90
51739;DHT22;37815;52.692;6.226;2023-05-10T04:26:32;16.00;99.90
51739;DHT22;37815;52.692;6.226;2023-05-10T04:31:33;16.00;99.90
51739;DHT22;37815;52.692;6.226;2023-05-10T04:36:34;16.00;99.90
51739;DHT22;37815;52.692;6.226;2023-05-10T04:41:37;16.00;99.90
51739;DHT22;37815;52.692;6.226;2023-05-10T04:46:38;16.00;99.90
51739;DHT22;37815;52.692;6.226;2023-05-10T04:51:39;16.00;99.90
51739;DHT22;37815;52.692;6.226;2023-05-10T04:56:39;16.00;99.90
51739;DHT22;37815;52.692;6.226;2023-05-10T05:01:41;16.00;99.90
51739;DHT22;37815;52.692;6.226;2023-05-10T05:06:41;15.90;99.90
51739;DHT22;37815;52.692;6.226;2023-05-10T05:11:42;15.90;99.90
51739;DHT22;37815;52.692;6.226;2023-05-10T05:16:42;15.90;99.90
51739;DHT22;37815;52.692;6.226;2023-05-10T05:21:43;16.00;99.90
51739;DHT22;37815;52.692;6.226;2023-05-10T05:26:44;15.90;99.90
51739;DHT22;37815;52.692;6.226;2023-05-10T05:31:44;15.90;99.90
51739;DHT22;37815;52.692;6.226;2023-05-10T05:36:45;16.00;99.90
51739;DHT22;37815;52.692;6.226;2023-05-10T05:41:46;15.90;99.90
51739;DHT22;37815;52.692;6.226;2023-05-10T05:46:46;15.90;99.90
51739;DHT22;37815;52.692;6.226;2023-05-10T05:51:47;15.90;99.90
51739;DHT22;37815;52.692;6.226;2023-05-10T05:56:49;16.00;99.90
51739;DHT22;37815;52.692;6.226;2023-05-10T06:01:50;15.90;99.90
51739;DHT22;37815;52.692;6.226;2023-05-10T06:06:51;15.90;99.90
51739;DHT22;37815;52.692;6.226;2023-05-10T06:11:51;16.00;99.90
51739;DHT22;37815;52.692;6.226;2023-05-10T06:16:52;15.90;99.90
51739;DHT22;37815;52.692;6.226;2023-05-10T06:21:52;15.90;99.90
51739;DHT22;37815;52.692;6.226;2023-05-10T06:26:53;15.90;99.90
51739;DHT22;37815;52.692;6.226;2023-05-10T06:31:54;15.90;99.90
51739;DHT22;37815;52.692;6.226;2023-05-10T06:36:54;16.00;99.90
51739;DHT22;37815;52.692;6.226;2023-05-10T06:41:55;16.00;99.90
51739;DHT22;37815;52.692;6.226;2023-05-10T06:46:55;15.90;99.80
51739;DHT22;37815;52.692;6.226;2023-05-10T06:51:56;16.00;99.80
51739;DHT22;37815;52.692;6.226;2023-05-10T06:56:57;16.00;99.80
51739;DHT22;37815;52.692;6.226;2023-05-10T07:01:58;16.00;99.80
51739;DHT22;37815;52.692;6.226;2023-05-10T07:06:58;16.00;99.80
51739;DHT22;37815;52.692;6.226;2023-05-10T07:11:59;16.00;99.70
51739;DHT22;37815;52.692;6.226;2023-05-10T07:17:00;16.00;99.70
51739;DHT22;37815;52.692;6.226;2023-05-10T07:22:01;16.00;99.70
51739;DHT22;37815;52.692;6.226;2023-05-10T07:27:02;16.00;99.70
51739;DHT22;37815;52.692;6.226;2023-05-10T07:32:02;16.00;99.70
51739;DHT22;37815;52.692;6.226;2023-05-10T07:37:03;16.00;99.70
51739;DHT22;37815;52.692;6.226;2023-05-10T07:42:03;16.10;99.60
51739;DHT22;37815;52.692;6.226;2023-05-10T07:47:04;16.10;99.60
51739;DHT22;37815;52.692;6.226;2023-05-10T07:52:05;16.10;99.50
51739;DHT22;37815;52.692;6.226;2023-05-10T07:57:05;16.20;99.50
51739;DHT22;37815;52.692;6.226;2023-05-10T08:02:06;16.10;99.50
51739;DHT22;37815;52.692;6.226;2023-05-10T08:07:07;16.20;99.50
51739;DHT22;37815;52.692;6.226;2023-05-10T08:12:07;16.50;99.60
51739;DHT22;37815;52.692;6.226;2023-05-10T08:17:08;16.20;99.50
51739;DHT22;37815;52.692;6.226;2023-05-10T08:22:09;16.20;99.50
51739;DHT22;37815;52.692;6.226;2023-05-10T08:27:09;16.20;99.50
51739;DHT22;37815;52.692;6.226;2023-05-10T08:32:10;16.20;99.40
51739;DHT22;37815;52.692;6.226;2023-05-10T08:37:10;16.30;99.40
51739;DHT22;37815;52.692;6.226;2023-05-10T08:42:18;16.30;99.40
51739;DHT22;37815;52.692;6.226;2023-05-10T08:47:19;16.40;99.30
51739;DHT22;37815;52.692;6.226;2023-05-10T08:52:21;16.30;99.30
51739;DHT22;37815;52.692;6.226;2023-05-10T08:57:25;16.40;99.30
51739;DHT22;37815;52.692;6.226;2023-05-10T09:02:25;16.50;99.20
51739;DHT22;37815;52.692;6.226;2023-05-10T09:07:27;16.50;99.20
51739;DHT22;37815;52.692;6.226;2023-05-10T09:12:28;16.40;99.20
51739;DHT22;37815;52.692;6.226;2023-05-10T09:17:29;16.50;99.20
51739;DHT22;37815;52.692;6.226;2023-05-10T09:22:30;16.60;99.20
51739;DHT22;37815;52.692;6.226;2023-05-10T09:27:31;16.60;99.20
51739;DHT22;37815;52.692;6.226;2023-05-10T09:32:47;16.60;99.20
51739;DHT22;37815;52.692;6.226;2023-05-10T09:37:54;16.60;99.20
51739;DHT22;37815;52.692;6.226;2023-05-10T09:47:59;16.60;99.30
51739;DHT22;37815;52.692;6.226;2023-05-10T09:53:02;16.60;99.30
51739;DHT22;37815;52.692;6.226;2023-05-10T09:58:03;16.60;99.40
51739;DHT22;37815;52.692;6.226;2023-05-10T10:03:15;16.60;99.40
51739;DHT22;37815;52.692;6.226;2023-05-10T10:08:17;16.60;99.50
51739;DHT22;37815;52.692;6.226;2023-05-10T10:13:18;16.70;99.50
51739;DHT22;37815;52.692;6.226;2023-05-10T10:18:19;16.70;99.40
51739;DHT22;37815;52.692;6.226;2023-05-10T10:23:27;16.70;99.40
51739;DHT22;37815;52.692;6.226;2023-05-10T10:28:48;16.70;99.50
51739;DHT22;37815;52.692;6.226;2023-05-10T10:34:05;16.60;99.40
51739;DHT22;37815;52.692;6.226;2023-05-10T10:39:10;16.70;99.50
51739;DHT22;37815;52.692;6.226;2023-05-10T10:49:26;16.70;99.40
51739;DHT22;37815;52.692;6.226;2023-05-10T10:54:28;16.70;99.50
51739;DHT22;37815;52.692;6.226;2023-05-10T10:59:29;16.70;99.50
51739;DHT22;37815;52.692;6.226;2023-05-10T11:04:41;16.70;99.50
51739;DHT22;37815;52.692;6.226;2023-05-10T11:09:43;16.70;99.50
51739;DHT22;37815;52.692;6.226;2023-05-10T11:14:49;16.70;99.50
51739;DHT22;37815;52.692;6.226;2023-05-10T11:20:09;16.60;99.60
51739;DHT22;37815;52.692;6.226;2023-05-10T11:25:10;16.60;99.60
51739;DHT22;37815;52.692;6.226;2023-05-10T11:30:11;16.60;99.60
51739;DHT22;37815;52.692;6.226;2023-05-10T11:35:12;16.50;99.60
51739;DHT22;37815;52.692;6.226;2023-05-10T11:40:13;16.60;99.70
51739;DHT22;37815;52.692;6.226;2023-05-10T11:45:14;16.60;99.70
51739;DHT22;37815;52.692;6.226;2023-05-10T11:50:16;16.60;99.70
51739;DHT22;37815;52.692;6.226;2023-05-10T11:55:17;16.70;99.70
51739;DHT22;37815;52.692;6.226;2023-05-10T12:00:18;16.70;99.60
51739;DHT22;37815;52.692;6.226;2023-05-10T12:05:19;16.70;99.50
51739;DHT22;37815;52.692;6.226;2023-05-10T12:10:26;16.80;99.50
51739;DHT22;37815;52.692;6.226;2023-05-10T12:15:27;16.80;99.50
51739;DHT22;37815;52.692;6.226;2023-05-10T12:20:28;16.80;99.50
51739;DHT22;37815;52.692;6.226;2023-05-10T12:25:34;16.80;99.50
51739;DHT22;37815;52.692;6.226;2023-05-10T12:30:35;16.80;99.50
51739;DHT22;37815;52.692;6.226;2023-05-10T12:35:54;16.80;99.50
51739;DHT22;37815;52.692;6.226;2023-05-10T12:41:01;16.80;99.50
51739;DHT22;37815;52.692;6.226;2023-05-10T12:46:16;16.80;99.60
51739;DHT22;37815;52.692;6.226;2023-05-10T12:51:16;16.70;99.50
51739;DHT22;37815;52.692;6.226;2023-05-10T12:56:19;16.70;99.60
51739;DHT22;37815;52.692;6.226;2023-05-10T13:01:20;16.80;99.60
51739;DHT22;37815;52.692;6.226;2023-05-10T13:06:21;16.70;99.50
51739;DHT22;37815;52.692;6.226;2023-05-10T13:11:22;16.70;99.60
51739;DHT22;37815;52.692;6.226;2023-05-10T13:16:22;16.70;99.60
51739;DHT22;37815;52.692;6.226;2023-05-10T13:21:23;16.70;99.60
51739;DHT22;37815;52.692;6.226;2023-05-10T13:26:25;16.70;99.60
51739;DHT22;37815;52.692;6.226;2023-05-10T13:31:25;16.70;99.70
51739;DHT22;37815;52.692;6.226;2023-05-10T13:36:26;16.60;99.70
51739;DHT22;37815;52.692;6.226;2023-05-10T13:41:27;16.60;99.70
51739;DHT22;37815;52.692;6.226;2023-05-10T13:46:28;16.60;99.70
51739;DHT22;37815;52.692;6.226;2023-05-10T13:51:29;16.60;99.70
51739;DHT22;37815;52.692;6.226;2023-05-10T13:56:29;16.60;99.80
51739;DHT22;37815;52.692;6.226;2023-05-10T14:01:30;16.60;99.70
51739;DHT22;37815;52.692;6.226;2023-05-10T14:06:31;16.60;99.70
51739;DHT22;37815;52.692;6.226;2023-05-10T14:11:32;16.70;99.70
51739;DHT22;37815;52.692;6.226;2023-05-10T14:16:32;16.70;99.60
51739;DHT22;37815;52.692;6.226;2023-05-10T14:21:33;16.70;99.60
51739;DHT22;37815;52.692;6.226;2023-05-10T14:26:33;16.80;99.50
51739;DHT22;37815;52.692;6.226;2023-05-10T14:31:34;16.80;99.40
51739;DHT22;37815;52.692;6.226;2023-05-10T14:36:35;16.60;99.40
51739;DHT22;37815;52.692;6.226;2023-05-10T14:41:36;16.60;99.50
51739;DHT22;37815;52.692;6.226;2023-05-10T14:46:37;16.60;99.60
51739;DHT22;37815;52.692;6.226;2023-05-10T14:51:38;16.50;99.60
51739;DHT22;37815;52.692;6.226;2023-05-10T14:56:39;16.40;99.50
51739;DHT22;37815;52.692;6.226;2023-05-10T15:01:41;16.50;99.60
51739;DHT22;37815;52.692;6.226;2023-05-10T15:06:42;16.40;99.50
51739;DHT22;37815;52.692;6.226;2023-05-10T15:11:43;16.30;99.50
51739;DHT22;37815;52.692;6.226;2023-05-10T15:16:44;16.40;99.60
51739;DHT22;37815;52.692;6.226;2023-05-10T15:21:45;16.50;99.40
51739;DHT22;37815;52.692;6.226;2023-05-10T15:26:46;16.40;99.20
51739;DHT22;37815;52.692;6.226;2023-05-10T15:31:47;16.50;99.20
51739;DHT22;37815;52.692;6.226;2023-05-10T15:36:48;16.50;99.10
51739;DHT22;37815;52.692;6.226;2023-05-10T15:41:48;16.40;99.10
51739;DHT22;37815;52.692;6.226;2023-05-10T15:46:49;16.30;99.20
51739;DHT22;37815;52.692;6.226;2023-05-10T15:51:49;16.30;99.20
51739;DHT22;37815;52.692;6.226;2023-05-10T15:56:50;16.20;99.30
51739;DHT22;37815;52.692;6.226;2023-05-10T16:01:51;16.20;99.40
51739;DHT22;37815;52.692;6.226;2023-05-10T16:06:52;16.10;99.50
51739;DHT22;37815;52.692;6.226;2023-05-10T16:11:52;16.00;99.50
51739;DHT22;37815;52.692;6.226;2023-05-10T16:16:53;16.00;99.60
51739;DHT22;37815;52.692;6.226;2023-05-10T16:21:54;16.00;99.70
51739;DHT22;37815;52.692;6.226;2023-05-10T16:26:54;16.00;99.80
51739;DHT22;37815;52.692;6.226;2023-05-10T16:31:55;16.00;99.80
51739;DHT22;37815;52.692;6.226;2023-05-10T16:36:55;15.90;99.80
51739;DHT22;37815;52.692;6.226;2023-05-10T16:41:56;16.00;99.80
51739;DHT22;37815;52.692;6.226;2023-05-10T16:46:57;16.00;99.80
51739;DHT22;37815;52.692;6.226;2023-05-10T16:51:57;16.10;99.80
51739;DHT22;37815;52.692;6.226;2023-05-10T16:56:58;16.00;99.80
51739;DHT22;37815;52.692;6.226;2023-05-10T17:01:58;15.90;99.80
51739;DHT22;37815;52.692;6.226;2023-05-10T17:06:59;15.80;99.90
51739;DHT22;37815;52.692;6.226;2023-05-10T17:12:00;15.80;99.90
51739;DHT22;37815;52.692;6.226;2023-05-10T17:17:03;15.80;99.90
51739;DHT22;37815;52.692;6.226;2023-05-10T17:22:03;15.80;99.90
51739;DHT22;37815;52.692;6.226;2023-05-10T17:27:04;15.70;99.80
51739;DHT22;37815;52.692;6.226;2023-05-10T17:32:04;15.80;99.80
51739;DHT22;37815;52.692;6.226;2023-05-10T17:37:07;15.70;99.80
51739;DHT22;37815;52.692;6.226;2023-05-10T17:42:08;15.70;99.90
51739;DHT22;37815;52.692;6.226;2023-05-10T17:47:08;15.70;99.90
51739;DHT22;37815;52.692;6.226;2023-05-10T17:52:09;15.80;99.90
51739;DHT22;37815;52.692;6.226;2023-05-10T17:57:10;15.90;99.80
51739;DHT22;37815;52.692;6.226;2023-05-10T18:02:10;16.00;99.70
51739;DHT22;37815;52.692;6.226;2023-05-10T18:07:11;16.10;99.70
51739;DHT22;37815;52.692;6.226;2023-05-10T18:12:11;16.20;99.60
51739;DHT22;37815;52.692;6.226;2023-05-10T18:17:12;16.30;99.60
51739;DHT22;37815;52.692;6.226;2023-05-10T18:22:13;16.20;99.50
51739;DHT22;37815;52.692;6.226;2023-05-10T18:27:13;16.30;99.50
51739;DHT22;37815;52.692;6.226;2023-05-10T18:32:15;16.30;99.50
51739;DHT22;37815;52.692;6.226;2023-05-10T18:37:16;16.30;99.50
51739;DHT22;37815;52.692;6.226;2023-05-10T18:42:16;16.30;99.50
51739;DHT22;37815;52.692;6.226;2023-05-10T18:47:20;16.30;99.50
51739;DHT22;37815;52.692;6.226;2023-05-10T18:52:20;16.30;99.50
51739;DHT22;37815;52.692;6.226;2023-05-10T18:57:21;16.40;99.50
51739;DHT22;37815;52.692;6.226;2023-05-10T19:02:22;16.30;99.50
51739;DHT22;37815;52.692;6.226;2023-05-10T19:07:24;16.40;99.50
51739;DHT22;37815;52.692;6.226;2023-05-10T19:12:25;16.40;99.60
51739;DHT22;37815;52.692;6.226;2023-05-10T19:17:26;16.40;99.60
51739;DHT22;37815;52.692;6.226;2023-05-10T19:22:26;16.30;99.50
51739;DHT22;37815;52.692;6.226;2023-05-10T19:27:27;16.30;99.60
51739;DHT22;37815;52.692;6.226;2023-05-10T19:32:27;16.30;99.60
51739;DHT22;37815;52.692;6.226;2023-05-10T19:37:28;16.30;99.60
51739;DHT22;37815;52.692;6.226;2023-05-10T19:42:28;16.30;99.70
51739;DHT22;37815;52.692;6.226;2023-05-10T19:47:29;16.30;99.70
51739;DHT22;37815;52.692;6.226;2023-05-10T19:52:30;16.20;99.70
51739;DHT22;37815;52.692;6.226;2023-05-10T19:57:30;16.30;99.70
51739;DHT22;37815;52.692;6.226;2023-05-10T20:02:31;16.20;99.70
51739;DHT22;37815;52.692;6.226;2023-05-10T20:07:31;16.20;99.70
51739;DHT22;37815;52.692;6.226;2023-05-10T20:12:32;16.20;99.80
51739;DHT22;37815;52.692;6.226;2023-05-10T20:17:34;16.20;99.80
51739;DHT22;37815;52.692;6.226;2023-05-10T20:22:34;16.20;99.80
51739;DHT22;37815;52.692;6.226;2023-05-10T20:27:36;16.10;99.80
51739;DHT22;37815;52.692;6.226;2023-05-10T20:32:37;16.10;99.90
51739;DHT22;37815;52.692;6.226;2023-05-10T20:37:39;16.20;99.90
51739;DHT22;37815;52.692;6.226;2023-05-10T20:42:40;16.10;99.90
51739;DHT22;37815;52.692;6.226;2023-05-10T20:47:40;16.10;99.90
51739;DHT22;37815;52.692;6.226;2023-05-10T20:52:41;16.10;99.90
51739;DHT22;37815;52.692;6.226;2023-05-10T20:57:47;16.10;99.90
51739;DHT22;37815;52.692;6.226;2023-05-10T21:02:47;16.00;99.90
51739;DHT22;37815;52.692;6.226;2023-05-10T21:07:48;16.00;99.90
51739;DHT22;37815;52.692;6.226;2023-05-10T21:12:49;16.00;99.90
51739;DHT22;37815;52.692;6.226;2023-05-10T21:17:49;16.00;99.90
51739;DHT22;37815;52.692;6.226;2023-05-10T21:22:50;16.00;99.90
51739;DHT22;37815;52.692;6.226;2023-05-10T21:27:50;15.90;99.90
51739;DHT22;37815;52.692;6.226;2023-05-10T21:32:51;16.00;99.90
51739;DHT22;37815;52.692;6.226;2023-05-10T21:37:53;16.00;99.90
51739;DHT22;37815;52.692;6.226;2023-05-10T21:42:53;15.90;99.90
51739;DHT22;37815;52.692;6.226;2023-05-10T21:47:54;15.90;99.90
51739;DHT22;37815;52.692;6.226;2023-05-10T21:52:55;15.90;99.90
51739;DHT22;37815;52.692;6.226;2023-05-10T21:57:56;15.90;99.90
51739;DHT22;37815;52.692;6.226;2023-05-10T22:02:57;15.90;99.90
51739;DHT22;37815;52.692;6.226;2023-05-10T22:07:57;15.90;99.90
51739;DHT22;37815;52.692;6.226;2023-05-10T22:12:58;15.80;99.90
51739;DHT22;37815;52.692;6.226;2023-05-10T22:17:59;15.80;99.90
51739;DHT22;37815;52.692;6.226;2023-05-10T22:23:00;15.80;99.90
51739;DHT22;37815;52.692;6.226;2023-05-10T22:28:00;15.80;99.90
51739;DHT22;37815;52.692;6.226;2023-05-10T22:33:01;15.80;99.90
51739;DHT22;37815;52.692;6.226;2023-05-10T22:38:02;15.80;99.90
51739;DHT22;37815;52.692;6.226;2023-05-10T22:43:02;15.80;99.90
51739;DHT22;37815;52.692;6.226;2023-05-10T22:48:03;15.70;99.90
51739;DHT22;37815;52.692;6.226;2023-05-10T22:53:04;15.70;99.90
51739;DHT22;37815;52.692;6.226;2023-05-10T22:58:06;15.70;99.80
51739;DHT22;37815;52.692;6.226;2023-05-10T23:03:06;15.70;99.80
51739;DHT22;37815;52.692;6.226;2023-05-10T23:08:07;15.70;99.80
51739;DHT22;37815;52.692;6.226;2023-05-10T23:13:08;15.70;99.80
51739;DHT22;37815;52.692;6.226;2023-05-10T23:18:08;15.80;99.90
51739;DHT22;37815;52.692;6.226;2023-05-10T23:23:09;15.70;99.80
51739;DHT22;37815;52.692;6.226;2023-05-10T23:28:10;15.70;99.80
51739;DHT22;37815;52.692;6.226;2023-05-10T23:33:11;15.60;99.90
51739;DHT22;37815;52.692;6.226;2023-05-10T23:38:13;15.60;99.80
51739;DHT22;37815;52.692;6.226;2023-05-10T23:43:15;15.60;99.80
51739;DHT22;37815;52.692;6.226;2023-05-10T23:48:15;15.60;99.80
51739;DHT22;37815;52.692;6.226;2023-05-10T23:53:16;15.60;99.80
51739;DHT22;37815;52.692;6.226;2023-05-10T23:58:17;15.60;99.80
